3A4 weather

Southeast Greensboro Airport
Greensboro, North Carolina, United States

Public forecast

Using degrees Fahrenheit for public forecast. Weather courtesy of forecast.io.

Closest aviation weather report (METAR) to Southeast Greensboro Airport

Closest report is Burlington Alamance Regional Airport, 12.1 nm (22.3 km) ENE. Retrieved 2020/04/03 00:54 UTC (17 minutes ago):

KBUY 030054Z AUTO 32009G16KT 10SM CLR 15/M02 A2994 RMK AO2 SLP137 T01501022

Closest aviation forecast (TAF) to Southeast Greensboro Airport

Closest forecast is Piedmont Triad International Airport, 15.4 nm (28.5 km) NW. Retrieved 2020-04-03 00:39 UTC (32 minutes ago):

TAF KGSO 022335Z 0300/0324 32011G18KT P6SM SKC FM031000 32008KT P6SM SKC FM031400 31015G25KT P6SM FEW250